createdAt,value
2018-02-14T00:00:00.885Z,0.00
2018-02-14T00:00:39.079Z,0.00
2018-02-14T00:01:56.402Z,0.00
2018-02-14T00:04:06.136Z,0.00
2018-02-14T00:06:17.105Z,0.00
2018-02-14T00:09:33.305Z,0.00
2018-02-14T00:10:36.486Z,0.00
2018-02-14T00:11:43.389Z,0.00
2018-02-14T00:12:50.529Z,0.00
2018-02-14T00:13:59.351Z,0.00
2018-02-14T00:14:59.042Z,0.00
2018-02-14T00:16:04.390Z,0.00
2018-02-14T00:17:08.888Z,0.00
2018-02-14T00:18:13.910Z,0.00
2018-02-14T00:19:19.447Z,0.00
2018-02-14T00:20:37.273Z,0.00
2018-02-14T00:21:30.932Z,0.00
2018-02-14T00:23:44.674Z,0.00
2018-02-14T00:24:40.886Z,0.00
2018-02-14T00:25:50.933Z,0.00
2018-02-14T00:27:01.385Z,0.00
2018-02-14T00:28:07.017Z,0.00
2018-02-14T00:29:10.358Z,0.00
2018-02-14T00:30:22.392Z,0.00
2018-02-14T00:31:22.296Z,0.00
2018-02-14T00:32:31.212Z,0.00
2018-02-14T00:33:32.448Z,0.00
2018-02-14T00:34:36.662Z,0.00
2018-02-14T00:38:55.224Z,0.00
2018-02-14T00:42:21.758Z,0.00
2018-02-14T00:47:42.068Z,0.00
2018-02-14T00:49:47.849Z,0.00
2018-02-14T00:54:08.532Z,0.00
2018-02-14T00:55:17.241Z,0.00
2018-02-14T00:57:38.348Z,0.00
2018-02-14T00:58:40.405Z,0.00
2018-02-14T00:59:37.546Z,0.00
2018-02-14T01:01:57.736Z,0.00
2018-02-14T01:03:07.056Z,0.00
2018-02-14T01:03:56.311Z,0.00
2018-02-14T01:06:24.290Z,0.00
2018-02-14T01:07:19.175Z,0.00
2018-02-14T01:08:42.318Z,0.00
2018-02-14T01:09:26.461Z,0.00
2018-02-14T01:10:35.267Z,0.00
2018-02-14T01:11:32.307Z,0.00
2018-02-14T01:12:53.815Z,0.00
2018-02-14T01:15:00.178Z,0.00
2018-02-14T01:16:08.479Z,0.00
2018-02-14T01:19:24.685Z,0.00
2018-02-14T01:21:33.907Z,0.00
2018-02-14T01:22:34.733Z,0.00
2018-02-14T01:23:37.507Z,0.00
2018-02-14T01:24:46.729Z,0.00
2018-02-14T01:25:58.206Z,0.00
2018-02-14T01:26:50.019Z,0.00
2018-02-14T01:27:59.857Z,0.00
2018-02-14T01:29:06.521Z,0.00
2018-02-14T01:30:16.358Z,0.00
2018-02-14T01:31:17.805Z,0.00
2018-02-14T01:33:32.045Z,0.00
2018-02-14T01:35:42.405Z,0.00
2018-02-14T01:36:48.963Z,0.00
2018-02-14T01:37:53.067Z,0.00
2018-02-14T01:38:55.634Z,0.00
2018-02-14T01:40:02.605Z,0.00
2018-02-14T01:41:06.091Z,0.00
2018-02-14T01:42:19.103Z,0.00
2018-02-14T01:43:18.701Z,0.00
2018-02-14T01:44:26.593Z,0.00
2018-02-14T01:45:28.648Z,0.00
2018-02-14T01:46:38.076Z,0.00
2018-02-14T01:47:46.787Z,0.00
2018-02-14T01:48:47.825Z,0.00
2018-02-14T01:49:55.506Z,0.00
2018-02-14T01:50:58.690Z,0.00
2018-02-14T01:52:05.246Z,0.00
2018-02-14T01:53:12.728Z,0.00
2018-02-14T01:54:13.453Z,0.00
2018-02-14T01:56:32.103Z,0.00
2018-02-14T01:57:31.292Z,0.00
2018-02-14T01:58:45.943Z,0.00
2018-02-14T02:02:08.799Z,0.00
2018-02-14T02:03:02.867Z,0.00
2018-02-14T02:04:07.992Z,0.00
2018-02-14T02:05:11.584Z,0.00
2018-02-14T02:07:21.020Z,0.00
2018-02-14T02:08:31.061Z,0.00
2018-02-14T02:10:33.636Z,0.00
2018-02-14T02:11:44.291Z,0.00
2018-02-14T02:12:45.220Z,0.00
2018-02-14T02:13:55.167Z,0.00
2018-02-14T02:15:11.961Z,0.00
2018-02-14T02:16:05.312Z,0.00
2018-02-14T02:18:17.227Z,0.00
2018-02-14T02:19:21.102Z,0.00
2018-02-14T02:20:28.791Z,0.00
2018-02-14T02:21:32.379Z,0.00
2018-02-14T02:22:39.352Z,0.00
2018-02-14T02:23:48.165Z,0.00
2018-02-14T02:25:56.373Z,0.00
2018-02-14T02:26:55.967Z,0.00
2018-02-14T02:29:28.241Z,0.00
2018-02-14T02:30:16.571Z,0.00
2018-02-14T02:31:20.778Z,0.00
2018-02-14T02:32:32.149Z,0.00
2018-02-14T02:33:35.743Z,0.00
2018-02-14T02:34:43.380Z,0.00
2018-02-14T02:36:00.844Z,0.00
2018-02-14T02:36:44.364Z,0.00
2018-02-14T02:37:47.339Z,0.00
2018-02-14T02:38:53.703Z,0.00
2018-02-14T02:40:17.768Z,0.00
2018-02-14T02:41:18.286Z,0.00
2018-02-14T02:42:09.691Z,0.00
2018-02-14T02:43:25.366Z,0.00
2018-02-14T02:44:33.975Z,0.00
2018-02-14T02:45:44.118Z,0.00
2018-02-14T02:46:42.692Z,0.00
2018-02-14T02:47:47.513Z,0.00
2018-02-14T02:48:48.135Z,0.00
2018-02-14T02:49:57.358Z,0.00
2018-02-14T02:50:54.395Z,0.00
2018-02-14T02:52:10.376Z,0.00
2018-02-14T02:53:08.745Z,0.00
2018-02-14T02:54:15.102Z,0.00
2018-02-14T02:55:28.114Z,0.00
2018-02-14T02:57:36.841Z,0.00
2018-02-14T02:58:56.910Z,0.00
2018-02-14T03:00:57.229Z,0.00
2018-02-14T03:02:06.963Z,0.00
2018-02-14T03:03:08.610Z,0.00
2018-02-14T03:04:09.436Z,0.00
2018-02-14T03:07:16.726Z,0.00
2018-02-14T03:08:26.871Z,0.00
2018-02-14T03:10:40.299Z,0.00
2018-02-14T03:11:42.254Z,0.00
2018-02-14T03:12:51.782Z,0.00
2018-02-14T03:14:02.645Z,0.00
2018-02-14T03:14:59.373Z,0.00
2018-02-14T03:16:08.086Z,0.00
2018-02-14T03:17:16.185Z,0.00
2018-02-14T03:18:25.711Z,0.00
2018-02-14T03:19:26.542Z,0.00
2018-02-14T03:20:35.043Z,0.00
2018-02-14T03:21:40.581Z,0.00
2018-02-14T03:22:47.552Z,0.00
2018-02-14T03:23:39.164Z,0.00
2018-02-14T03:25:56.276Z,0.00
2018-02-14T03:27:02.121Z,0.00
2018-02-14T03:28:07.144Z,0.00
2018-02-14T03:29:29.686Z,0.00
2018-02-14T03:30:20.265Z,0.00
2018-02-14T03:31:23.146Z,0.00
2018-02-14T03:32:25.193Z,0.00
2018-02-14T03:33:32.985Z,0.00
2018-02-14T03:34:54.702Z,0.00
2018-02-14T03:35:51.327Z,0.00
2018-02-14T03:36:51.539Z,0.00
2018-02-14T03:37:53.901Z,0.00
2018-02-14T03:39:10.704Z,0.00
2018-02-14T03:40:04.668Z,0.00
2018-02-14T03:41:11.334Z,0.00
2018-02-14T03:42:14.205Z,0.00
2018-02-14T03:43:25.886Z,0.00
2018-02-14T03:44:32.345Z,0.00
2018-02-14T03:45:39.211Z,0.00
2018-02-14T03:46:47.315Z,0.00
2018-02-14T03:47:42.707Z,0.00
2018-02-14T03:48:57.977Z,0.00
2018-02-14T03:52:14.275Z,0.00
2018-02-14T03:53:09.983Z,0.00
2018-02-14T03:54:21.764Z,0.00
2018-02-14T03:55:24.029Z,0.00
2018-02-14T03:56:32.735Z,0.00
2018-02-14T03:57:44.518Z,0.00
2018-02-14T03:59:57.230Z,0.00
2018-02-14T04:00:52.525Z,0.00
2018-02-14T04:01:55.403Z,0.00
2018-02-14T04:03:08.106Z,0.00
2018-02-14T04:04:03.811Z,0.00
2018-02-14T04:05:24.400Z,0.00
2018-02-14T04:06:26.053Z,0.00
2018-02-14T04:07:26.056Z,0.00
2018-02-14T04:09:39.075Z,0.00
2018-02-14T04:11:56.085Z,0.00
2018-02-14T04:12:52.712Z,0.00
2018-02-14T04:14:06.857Z,0.00
2018-02-14T04:17:25.200Z,0.00
2018-02-14T04:18:24.287Z,0.00
2018-02-14T04:19:28.389Z,0.00
2018-02-14T04:20:32.390Z,0.00
2018-02-14T04:21:49.907Z,0.00
2018-02-14T04:22:43.466Z,0.00
2018-02-14T04:23:57.294Z,0.00
2018-02-14T04:25:04.576Z,0.00
2018-02-14T04:26:03.144Z,0.00
2018-02-14T04:27:20.253Z,0.00
2018-02-14T04:28:10.429Z,0.00
2018-02-14T04:29:18.322Z,0.00
2018-02-14T04:30:21.298Z,0.00
2018-02-14T04:31:36.257Z,0.00
2018-02-14T04:32:44.659Z,0.00
2018-02-14T04:33:42.004Z,0.00
2018-02-14T04:34:41.703Z,0.00
2018-02-14T04:36:04.342Z,0.00
2018-02-14T04:37:01.789Z,0.00
2018-02-14T04:38:05.900Z,0.00
2018-02-14T04:39:11.531Z,0.00
2018-02-14T04:40:09.295Z,0.00
2018-02-14T04:41:25.265Z,0.00
2018-02-14T04:42:26.194Z,0.00
2018-02-14T04:43:37.158Z,0.00
2018-02-14T04:44:34.093Z,0.00
2018-02-14T04:45:35.638Z,0.00
2018-02-14T04:46:49.903Z,0.00
2018-02-14T04:47:50.509Z,0.00
2018-02-14T04:48:59.313Z,0.00
2018-02-14T04:50:01.469Z,0.00
2018-02-14T04:51:09.462Z,0.00
2018-02-14T04:53:19.512Z,0.00
2018-02-14T04:54:23.718Z,0.00
2018-02-14T04:55:32.019Z,0.00
2018-02-14T04:56:40.218Z,0.00
2018-02-14T04:57:43.092Z,0.00
2018-02-14T04:58:52.009Z,0.00
2018-02-14T04:59:57.034Z,0.00
2018-02-14T05:00:59.703Z,0.00
2018-02-14T05:03:07.295Z,0.00
2018-02-14T05:04:13.447Z,0.00
2018-02-14T05:05:20.213Z,0.00
2018-02-14T05:06:27.078Z,0.00
2018-02-14T05:07:35.996Z,0.00
2018-02-14T05:08:41.020Z,0.00
2018-02-14T05:09:41.846Z,0.00
2018-02-14T05:10:55.881Z,0.00
2018-02-14T05:11:56.304Z,0.00
2018-02-14T05:14:04.915Z,0.00
2018-02-14T05:15:07.173Z,0.00
2018-02-14T05:16:16.090Z,0.00
2018-02-14T05:17:22.444Z,0.00
2018-02-14T05:18:21.735Z,0.00
2018-02-14T05:19:33.722Z,0.00
2018-02-14T05:20:33.423Z,0.00
2018-02-14T05:21:47.153Z,0.00
2018-02-14T05:23:00.062Z,0.00
2018-02-14T05:25:09.910Z,0.00
2018-02-14T05:26:11.453Z,0.00
2018-02-14T05:27:04.800Z,0.00
2018-02-14T05:28:16.993Z,0.00
2018-02-14T05:29:26.727Z,0.00
2018-02-14T05:30:27.347Z,0.00
2018-02-14T05:31:30.631Z,0.00
2018-02-14T05:32:42.928Z,0.00
2018-02-14T05:33:34.538Z,0.00
2018-02-14T05:34:46.834Z,0.00
2018-02-14T05:36:01.074Z,0.00
2018-02-14T05:36:56.270Z,0.00
2018-02-14T05:38:06.002Z,0.00
2018-02-14T05:39:14.610Z,0.00
2018-02-14T05:40:10.319Z,0.00
2018-02-14T05:43:33.275Z,0.00
2018-02-14T05:45:37.591Z,0.00
2018-02-14T05:46:49.916Z,0.00
2018-02-14T05:47:51.326Z,0.00
2018-02-14T05:48:59.734Z,0.00
2018-02-14T05:50:11.205Z,0.00
2018-02-14T05:51:14.491Z,0.00
2018-02-14T05:52:32.826Z,0.00
2018-02-14T05:53:33.970Z,0.00
2018-02-14T05:54:28.131Z,0.00
2018-02-14T05:55:43.705Z,0.00
2018-02-14T05:56:49.547Z,0.00
2018-02-14T05:57:44.331Z,0.00
2018-02-14T05:58:58.059Z,0.00
2018-02-14T05:59:52.740Z,0.00
2018-02-14T06:01:05.856Z,0.00
2018-02-14T06:02:10.166Z,0.00
2018-02-14T06:03:19.901Z,0.00
2018-02-14T06:04:20.526Z,0.00
2018-02-14T06:05:20.426Z,0.00
2018-02-14T06:07:34.057Z,0.00
2018-02-14T06:08:46.557Z,0.00
2018-02-14T06:09:49.433Z,0.00
2018-02-14T06:10:42.988Z,0.00
2018-02-14T06:11:57.536Z,0.00
2018-02-14T06:12:58.771Z,0.00
2018-02-14T06:14:11.066Z,0.00
2018-02-14T06:15:06.259Z,0.00
2018-02-14T06:16:22.856Z,0.00
2018-02-14T06:17:22.966Z,0.00
2018-02-14T06:18:31.677Z,0.00
2018-02-14T06:20:39.167Z,0.00
2018-02-14T06:21:47.059Z,0.00
2018-02-14T06:22:56.895Z,0.00
2018-02-14T06:23:57.618Z,0.00
2018-02-14T06:24:59.982Z,0.00
2018-02-14T06:26:17.910Z,0.00
2018-02-14T06:27:17.505Z,0.00
2018-02-14T06:28:21.813Z,0.00
2018-02-14T06:29:38.414Z,0.00
2018-02-14T06:30:36.573Z,0.00
2018-02-14T06:31:47.332Z,0.00
2018-02-14T06:32:53.792Z,0.00
2018-02-14T06:33:49.706Z,0.00
2018-02-14T06:35:59.136Z,0.00
2018-02-14T06:37:09.587Z,0.00
2018-02-14T06:39:11.138Z,0.00
2018-02-14T06:40:29.167Z,0.00
2018-02-14T06:41:20.880Z,0.00
2018-02-14T06:42:31.435Z,0.00
2018-02-14T06:43:38.097Z,0.00
2018-02-14T06:44:38.103Z,0.00
2018-02-14T06:45:48.760Z,0.00
2018-02-14T06:46:57.266Z,0.00
2018-02-14T06:48:01.271Z,0.00
2018-02-14T06:50:22.172Z,0.00
2018-02-14T06:51:09.993Z,0.00
2018-02-14T06:52:27.615Z,0.00
2018-02-14T06:53:24.444Z,0.00
2018-02-14T06:54:27.933Z,0.00
2018-02-14T06:55:47.091Z,0.00
2018-02-14T06:56:39.722Z,0.00
2018-02-14T06:57:54.270Z,0.00
2018-02-14T06:59:08.209Z,0.00
2018-02-14T06:59:53.055Z,0.00
2018-02-14T07:01:03.817Z,0.00
2018-02-14T07:03:22.366Z,0.00
2018-02-14T07:04:20.634Z,0.00
2018-02-14T07:05:24.938Z,5.63
2018-02-14T07:06:31.806Z,5.63
2018-02-14T07:07:38.163Z,5.63
2018-02-14T07:08:53.849Z,5.63
2018-02-14T07:10:57.852Z,5.63
2018-02-14T07:12:02.766Z,5.63
2018-02-14T07:13:12.501Z,5.63
2018-02-14T07:14:13.225Z,5.63
2018-02-14T07:15:12.120Z,5.63
2018-02-14T07:16:20.819Z,5.63
2018-02-14T07:17:37.516Z,5.63
2018-02-14T07:18:48.989Z,5.63
2018-02-14T07:19:43.981Z,5.63
2018-02-14T07:20:43.782Z,5.63
2018-02-14T07:21:58.441Z,5.63
2018-02-14T07:22:59.975Z,5.63
2018-02-14T07:24:07.048Z,5.63
2018-02-14T07:25:09.001Z,5.63
2018-02-14T07:26:01.840Z,5.63
2018-02-14T07:27:08.503Z,5.63
2018-02-14T07:28:30.117Z,5.63
2018-02-14T07:29:34.527Z,11.25
2018-02-14T07:30:36.478Z,11.25
2018-02-14T07:31:39.455Z,11.25
2018-02-14T07:32:43.253Z,11.25
2018-02-14T07:33:51.042Z,11.25
2018-02-14T07:34:50.739Z,11.25
2018-02-14T07:35:54.740Z,11.25
2018-02-14T07:37:03.248Z,11.25
2018-02-14T07:38:05.301Z,11.25
2018-02-14T07:39:18.723Z,11.25
2018-02-14T07:40:21.708Z,11.25
2018-02-14T07:41:31.540Z,11.25
2018-02-14T07:42:34.209Z,11.25
2018-02-14T07:43:34.420Z,11.25
2018-02-14T07:44:39.751Z,11.25
2018-02-14T07:45:45.190Z,11.25
2018-02-14T07:46:53.079Z,11.25
2018-02-14T07:49:06.814Z,11.25
2018-02-14T07:50:08.356Z,11.25
2018-02-14T07:51:17.476Z,11.25
2018-02-14T07:52:25.061Z,11.25
2018-02-14T07:55:37.063Z,11.25
2018-02-14T07:56:52.020Z,11.25
2018-02-14T07:57:51.003Z,11.25
2018-02-14T07:59:03.916Z,11.25
2018-02-14T07:59:54.296Z,11.25
2018-02-14T08:01:09.354Z,11.25
2018-02-14T08:02:04.957Z,11.25
2018-02-14T08:03:16.743Z,16.88
2018-02-14T08:04:23.507Z,16.88
2018-02-14T08:05:18.701Z,16.88
2018-02-14T08:06:33.359Z,16.88
2018-02-14T08:07:41.858Z,16.88
2018-02-14T08:08:41.149Z,16.88
2018-02-14T08:09:52.419Z,16.88
2018-02-14T08:10:52.221Z,16.88
2018-02-14T08:12:03.390Z,16.88
2018-02-14T08:13:05.036Z,16.88
2018-02-14T08:14:04.734Z,16.88
2018-02-14T08:15:15.597Z,16.88
2018-02-14T08:16:18.368Z,16.88
2018-02-14T08:17:35.066Z,16.88
2018-02-14T08:18:37.935Z,16.88
2018-02-14T08:19:35.080Z,16.88
2018-02-14T08:20:47.477Z,16.88
2018-02-14T08:21:51.478Z,16.88
2018-02-14T08:22:52.513Z,16.88
2018-02-14T08:23:57.227Z,16.88
2018-02-14T08:25:11.570Z,16.88
2018-02-14T08:26:10.757Z,16.88
2018-02-14T08:27:18.651Z,16.88
2018-02-14T08:28:29.408Z,16.88
2018-02-14T08:29:35.972Z,16.88
2018-02-14T08:31:35.369Z,16.88
2018-02-14T08:32:46.539Z,16.88
2018-02-14T08:33:55.354Z,22.50
2018-02-14T08:35:09.083Z,22.50
2018-02-14T08:36:18.515Z,22.50
2018-02-14T08:37:13.600Z,22.50
2018-02-14T08:39:22.949Z,22.50
2018-02-14T08:40:29.901Z,22.50
2018-02-14T08:41:46.406Z,22.50
2018-02-14T08:42:27.358Z,22.50
2018-02-14T08:43:47.537Z,22.50
2018-02-14T08:44:50.205Z,22.50
2018-02-14T08:46:00.763Z,22.50
2018-02-14T08:47:14.593Z,22.50
2018-02-14T08:48:07.634Z,22.50
2018-02-14T08:49:20.552Z,22.50
2018-02-14T08:50:16.665Z,22.50
2018-02-14T08:51:42.276Z,22.50
2018-02-14T08:53:06.648Z,22.50
2018-02-14T08:53:46.685Z,22.50
2018-02-14T08:55:22.433Z,22.50
2018-02-14T08:57:11.897Z,28.13
2018-02-14T08:58:32.897Z,28.13
2018-02-14T08:59:55.330Z,28.13
2018-02-14T09:02:29.032Z,28.13
2018-02-14T09:03:22.485Z,28.13
2018-02-14T09:04:34.289Z,28.13
2018-02-14T09:05:13.999Z,28.13
2018-02-14T09:06:56.708Z,28.13
2018-02-14T09:07:36.540Z,28.13
2018-02-14T09:08:30.306Z,28.13
2018-02-14T09:10:58.578Z,28.13
2018-02-14T09:11:40.155Z,28.13
2018-02-14T09:12:46.201Z,28.13
2018-02-14T09:15:30.965Z,28.13
2018-02-14T09:16:12.029Z,28.13
2018-02-14T09:17:20.225Z,28.13
2018-02-14T09:18:37.447Z,28.13
2018-02-14T09:19:25.257Z,28.13
2018-02-14T09:20:27.928Z,28.13
2018-02-14T09:21:29.674Z,28.13
2018-02-14T09:22:43.609Z,28.13
2018-02-14T09:23:55.805Z,28.13
2018-02-14T09:26:13.223Z,28.13
2018-02-14T09:28:17.947Z,28.13
2018-02-14T09:29:15.397Z,28.13
2018-02-14T09:30:16.322Z,28.13
2018-02-14T09:31:28.928Z,28.13
2018-02-14T09:32:35.692Z,28.13
2018-02-14T09:33:43.583Z,28.13
2018-02-14T09:34:48.299Z,28.13
2018-02-14T09:35:52.197Z,28.13
2018-02-14T09:37:02.456Z,28.13
2018-02-14T09:38:05.013Z,28.13
2018-02-14T09:39:02.669Z,28.13
2018-02-14T09:40:17.520Z,28.13
2018-02-14T09:41:21.214Z,28.13
2018-02-14T09:42:26.135Z,28.13
2018-02-14T09:43:28.541Z,28.13
2018-02-14T09:44:38.028Z,28.13
2018-02-14T09:45:41.943Z,28.13
2018-02-14T09:46:50.328Z,28.13
2018-02-14T09:47:47.473Z,28.13
2018-02-14T09:49:07.342Z,28.13
2018-02-14T09:49:45.029Z,28.13
2018-02-14T09:53:14.762Z,28.13
2018-02-14T09:54:26.335Z,28.13
2018-02-14T09:56:29.406Z,28.13
2018-02-14T09:58:46.521Z,28.13
2018-02-14T09:59:45.321Z,28.13
2018-02-14T10:01:10.703Z,28.13
2018-02-14T10:02:15.839Z,28.13
2018-02-14T10:03:14.607Z,28.13
2018-02-14T10:04:08.983Z,28.13
2018-02-14T10:05:37.047Z,28.13
2018-02-14T10:08:40.141Z,28.13
2018-02-14T10:09:35.845Z,28.13
2018-02-14T10:11:54.653Z,28.13
2018-02-14T10:12:56.143Z,28.13
2018-02-14T10:14:03.423Z,28.13
2018-02-14T10:15:15.306Z,28.13
2018-02-14T10:16:16.644Z,33.75
2018-02-14T10:17:23.510Z,28.13
2018-02-14T10:19:26.085Z,28.13
2018-02-14T10:20:26.212Z,28.13
2018-02-14T10:22:45.870Z,28.13
2018-02-14T10:23:52.942Z,28.13
2018-02-14T10:24:57.660Z,28.13
2018-02-14T10:26:09.238Z,28.13
2018-02-14T10:27:16.003Z,28.13
2018-02-14T10:28:10.379Z,28.13
2018-02-14T10:29:24.107Z,33.75
2018-02-14T10:30:17.061Z,33.75
2018-02-14T10:31:25.247Z,33.75
2018-02-14T10:32:37.443Z,33.75
2018-02-14T10:33:38.984Z,33.75
2018-02-14T10:34:42.478Z,33.75
2018-02-14T10:35:49.033Z,33.75
2018-02-14T10:36:55.797Z,33.75
2018-02-14T10:38:07.992Z,33.75
2018-02-14T10:39:02.876Z,33.75
2018-02-14T10:40:07.902Z,33.75
2018-02-14T10:41:12.926Z,33.75
2018-02-14T10:42:37.201Z,33.75
2018-02-14T10:43:35.571Z,33.75
2018-02-14T10:44:40.699Z,33.75
2018-02-14T10:45:44.206Z,33.75
2018-02-14T10:47:43.523Z,39.38
2018-02-14T10:48:53.014Z,39.38
2018-02-14T10:50:06.235Z,39.38
2018-02-14T10:51:02.243Z,39.38
2018-02-14T10:52:08.396Z,39.38
2018-02-14T10:55:34.120Z,39.38
2018-02-14T10:56:28.902Z,39.38
2018-02-14T10:57:33.312Z,39.38
2018-02-14T10:58:50.629Z,45.00
2018-02-14T10:59:47.664Z,45.00
2018-02-14T11:00:56.283Z,45.00
2018-02-14T11:03:06.219Z,50.63
2018-02-14T11:04:18.513Z,50.63
2018-02-14T11:05:16.577Z,50.63
2018-02-14T11:07:23.552Z,50.63
2018-02-14T11:08:47.017Z,50.63
2018-02-14T11:09:37.185Z,50.63
2018-02-14T11:10:41.186Z,50.63
2018-02-14T11:12:52.979Z,50.63
2018-02-14T11:14:04.557Z,50.63
2018-02-14T11:14:59.748Z,50.63
2018-02-14T11:16:02.017Z,50.63
2018-02-14T11:17:28.333Z,50.63
2018-02-14T11:18:24.550Z,50.63
2018-02-14T11:19:25.478Z,50.63
2018-02-14T11:20:30.094Z,50.63
2018-02-14T11:21:40.548Z,50.63
2018-02-14T11:22:41.175Z,50.63
2018-02-14T11:24:55.926Z,50.63
2018-02-14T11:25:59.314Z,56.25
2018-02-14T11:27:09.049Z,56.25
2018-02-14T11:28:15.414Z,56.25
2018-02-14T11:29:23.477Z,56.25
2018-02-14T11:31:39.593Z,56.25
2018-02-14T11:32:32.329Z,56.25
2018-02-14T11:36:09.527Z,56.25
2018-02-14T11:38:14.869Z,56.25
2018-02-14T11:39:10.265Z,56.25
2018-02-14T11:40:18.047Z,56.25
2018-02-14T11:42:43.763Z,56.25
2018-02-14T11:43:57.799Z,56.25
2018-02-14T11:44:48.386Z,56.25
2018-02-14T11:45:55.267Z,56.25
2018-02-14T11:47:04.990Z,56.25
2018-02-14T11:50:27.488Z,56.25
2018-02-14T11:51:44.340Z,56.25
2018-02-14T11:52:31.239Z,56.25
2018-02-14T11:53:47.016Z,56.25
2018-02-14T11:54:46.817Z,56.25
2018-02-14T11:55:54.710Z,56.25
2018-02-14T11:57:14.584Z,56.25
2018-02-14T11:58:38.449Z,56.25
2018-02-14T11:59:19.408Z,61.88
2018-02-14T12:00:24.740Z,61.88
2018-02-14T12:01:47.891Z,61.88
2018-02-14T12:02:54.758Z,61.88
2018-02-14T12:03:55.687Z,61.88
2018-02-14T12:05:04.403Z,61.88
2018-02-14T12:10:45.495Z,56.25
2018-02-14T12:11:52.363Z,56.25
2018-02-14T12:12:58.206Z,56.25
2018-02-14T12:14:04.155Z,56.25
2018-02-14T12:15:03.854Z,56.25
2018-02-14T12:16:20.760Z,56.25
2018-02-14T12:18:20.989Z,45.00
2018-02-14T12:19:25.283Z,56.25
2018-02-14T12:20:08.196Z,56.25
2018-02-14T12:22:09.431Z,61.88
2018-02-14T12:22:50.699Z,61.88
2018-02-14T12:24:20.811Z,61.88
2018-02-14T12:24:46.412Z,67.50
2018-02-14T12:26:03.011Z,67.50
2018-02-14T12:27:17.555Z,67.50
2018-02-14T12:28:22.377Z,73.13
2018-02-14T12:29:11.637Z,73.13
2018-02-14T12:30:40.312Z,73.13
2018-02-14T12:33:02.140Z,78.75
2018-02-14T12:34:05.522Z,78.75
2018-02-14T12:34:56.927Z,84.38
2018-02-14T12:36:14.034Z,84.38
2018-02-14T12:36:55.915Z,84.38
2018-02-14T12:37:52.032Z,90.00
2018-02-14T12:39:08.217Z,112.50
2018-02-14T12:41:25.640Z,444.38
2018-02-14T12:43:23.913Z,118.13
2018-02-14T12:44:33.447Z,174.38
2018-02-14T12:45:43.491Z,365.63
2018-02-14T12:46:41.243Z,309.38
2018-02-14T12:47:50.976Z,129.38
2018-02-14T12:49:00.105Z,140.63
2018-02-14T12:49:58.774Z,585.00
2018-02-14T12:51:07.177Z,1198.13
2018-02-14T12:53:04.322Z,849.38
2018-02-14T12:54:28.600Z,405.00
2018-02-14T12:55:23.486Z,213.75
2018-02-14T12:56:34.040Z,163.13
2018-02-14T12:57:47.972Z,90.00
2018-02-14T12:58:37.236Z,236.25
2018-02-14T13:00:16.766Z,973.13
2018-02-14T13:00:53.729Z,106.88
2018-02-14T13:01:50.678Z,1406.25
2018-02-14T13:03:02.037Z,1417.50
2018-02-14T13:04:02.658Z,1524.38
2018-02-14T13:05:09.525Z,78.75
2018-02-14T13:06:21.310Z,1451.25
2018-02-14T13:08:45.900Z,61.88
2018-02-14T13:09:38.226Z,1586.25
2018-02-14T13:10:35.980Z,1681.88
2018-02-14T13:11:50.836Z,1721.25
2018-02-14T13:12:52.697Z,1665.00
2018-02-14T13:13:54.946Z,1732.50
2018-02-14T13:15:12.163Z,1648.13
2018-02-14T13:17:32.009Z,1665.00
2018-02-14T13:18:58.975Z,1698.75
2018-02-14T13:19:46.900Z,1726.88
2018-02-14T13:20:30.317Z,1760.63
2018-02-14T13:22:49.377Z,1631.25
2018-02-14T13:23:43.446Z,1552.50
2018-02-14T13:25:00.143Z,376.88
2018-02-14T13:26:04.975Z,213.75
2018-02-14T13:27:22.786Z,196.88
2018-02-14T13:27:58.837Z,180.00
2018-02-14T13:29:19.728Z,174.38
2018-02-14T13:31:01.417Z,168.75
2018-02-14T13:32:37.567Z,157.50
2018-02-14T13:33:47.917Z,163.13
2018-02-14T13:34:48.440Z,168.75
2018-02-14T13:35:58.068Z,180.00
2018-02-14T13:36:57.693Z,191.25
2018-02-14T13:37:56.034Z,264.38
2018-02-14T13:39:09.253Z,489.38
2018-02-14T13:40:06.289Z,607.50
2018-02-14T13:41:21.246Z,663.75
2018-02-14T13:42:36.007Z,720.00
2018-02-14T13:44:33.256Z,855.00
2018-02-14T13:46:10.634Z,950.63
2018-02-14T13:47:44.336Z,1198.13
2018-02-14T13:48:22.942Z,1783.13
2018-02-14T13:49:12.089Z,1721.25
2018-02-14T13:50:22.947Z,1710.00
2018-02-14T13:51:35.140Z,1614.38
2018-02-14T13:52:36.787Z,1546.88
2018-02-14T13:53:35.979Z,1434.38
2018-02-14T13:54:52.161Z,1310.63
2018-02-14T13:55:43.360Z,1237.50
2018-02-14T13:56:48.384Z,1203.75
2018-02-14T13:58:46.862Z,1119.38
2018-02-14T13:59:13.998Z,1209.38
2018-02-14T14:00:51.999Z,1209.38
2018-02-14T14:01:27.633Z,1209.38
2018-02-14T14:03:34.613Z,174.38
2018-02-14T14:04:40.867Z,196.88
2018-02-14T14:05:37.592Z,202.50
2018-02-14T14:06:48.556Z,1102.50
2018-02-14T14:07:58.496Z,1119.38
2018-02-14T14:08:50.838Z,1108.13
2018-02-14T14:10:17.965Z,1074.38
2018-02-14T14:11:04.560Z,984.38
2018-02-14T14:12:32.318Z,911.25
2018-02-14T14:13:28.329Z,945.00
2018-02-14T14:14:30.905Z,888.75
2018-02-14T14:15:39.914Z,376.88
2018-02-14T14:17:03.271Z,765.00
2018-02-14T14:17:54.163Z,838.13
2018-02-14T14:18:43.930Z,843.75
2018-02-14T14:19:47.417Z,776.25
2018-02-14T14:20:54.900Z,883.13
2018-02-14T14:22:08.943Z,658.13
2018-02-14T14:23:10.786Z,781.88
2018-02-14T14:24:11.320Z,753.75
2018-02-14T14:25:30.872Z,534.38
2018-02-14T14:26:35.590Z,483.75
2018-02-14T14:28:44.408Z,371.25
2018-02-14T14:29:43.291Z,213.75
2018-02-14T14:30:52.307Z,112.50
2018-02-14T14:32:08.808Z,95.63
2018-02-14T14:33:16.489Z,56.25
2018-02-14T14:34:24.586Z,45.00
2018-02-14T14:35:22.952Z,45.00
2018-02-14T14:36:29.309Z,39.38
2018-02-14T14:37:19.897Z,39.38
2018-02-14T14:38:33.114Z,39.38
2018-02-14T14:40:46.540Z,39.38
2018-02-14T14:43:00.788Z,39.38
2018-02-14T14:44:04.277Z,33.75
2018-02-14T14:45:08.482Z,33.75
2018-02-14T14:45:59.887Z,33.75
2018-02-14T14:47:09.929Z,28.13
2018-02-14T14:49:22.846Z,28.13
2018-02-14T14:50:33.399Z,28.13
2018-02-14T14:52:13.242Z,28.13
2018-02-14T14:52:57.584Z,28.13
2018-02-14T14:53:55.746Z,28.13
2018-02-14T14:54:51.655Z,28.13
2018-02-14T14:56:00.776Z,28.13
2018-02-14T14:57:09.694Z,28.13
2018-02-14T14:58:17.277Z,28.13
2018-02-14T14:59:23.327Z,33.75
2018-02-14T15:00:23.132Z,33.75
2018-02-14T15:01:26.617Z,33.75
2018-02-14T15:02:34.408Z,33.75
2018-02-14T15:04:56.848Z,28.13
2018-02-14T15:06:08.648Z,28.13
2018-02-14T15:07:59.634Z,28.13
2018-02-14T15:09:02.711Z,28.13
2018-02-14T15:10:12.250Z,22.50
2018-02-14T15:11:23.723Z,22.50
2018-02-14T15:12:22.596Z,28.13
2018-02-14T15:13:39.399Z,22.50
2018-02-14T15:14:35.103Z,22.50
2018-02-14T15:15:41.357Z,22.50
2018-02-14T15:16:44.439Z,22.50
2018-02-14T15:17:47.929Z,22.50
2018-02-14T15:19:04.069Z,22.50
2018-02-14T15:20:08.119Z,22.50
2018-02-14T15:21:08.325Z,22.50
2018-02-14T15:23:24.417Z,16.88
2018-02-14T15:24:43.981Z,16.88
2018-02-14T15:25:33.546Z,16.88
2018-02-14T15:26:42.458Z,16.88
2018-02-14T15:27:54.752Z,16.88
2018-02-14T15:29:01.829Z,16.88
2018-02-14T15:30:02.139Z,16.88
2018-02-14T15:31:13.110Z,11.25
2018-02-14T15:32:10.652Z,16.88
2018-02-14T15:33:02.674Z,16.88
2018-02-14T15:37:52.789Z,16.88
2018-02-14T15:39:01.997Z,16.88
2018-02-14T15:41:19.214Z,16.88
2018-02-14T15:42:47.893Z,16.88
2018-02-14T15:45:49.758Z,16.88
2018-02-14T15:46:49.561Z,16.88
2018-02-14T15:47:59.747Z,16.88
2018-02-14T15:49:07.579Z,16.88
2018-02-14T15:49:38.317Z,16.88
2018-02-14T15:51:10.893Z,16.88
2018-02-14T15:52:32.707Z,16.88
2018-02-14T15:54:19.407Z,11.25
2018-02-14T15:56:17.076Z,11.25
2018-02-14T15:56:56.084Z,11.25
2018-02-14T15:58:24.762Z,11.25
2018-02-14T15:59:16.576Z,11.25
2018-02-14T16:00:32.466Z,11.25
2018-02-14T16:01:33.385Z,11.25
2018-02-14T16:04:48.867Z,11.25
2018-02-14T16:06:03.620Z,5.63
2018-02-14T16:07:08.543Z,5.63
2018-02-14T16:08:13.361Z,5.63
2018-02-14T16:09:09.171Z,5.63
2018-02-14T16:10:36.932Z,5.63
2018-02-14T16:11:29.874Z,5.63
2018-02-14T16:13:48.418Z,5.63
2018-02-14T16:14:42.384Z,5.63
2018-02-14T16:15:41.162Z,5.63
2018-02-14T16:16:51.203Z,5.63
2018-02-14T16:17:35.236Z,5.63
2018-02-14T16:18:59.520Z,5.63
2018-02-14T16:19:54.705Z,5.63
2018-02-14T16:24:16.237Z,5.63
2018-02-14T16:25:32.639Z,5.63
2018-02-14T16:26:32.534Z,0.00
2018-02-14T16:27:38.479Z,0.00
2018-02-14T16:28:37.156Z,0.00
2018-02-14T16:29:38.289Z,0.00
2018-02-14T16:30:46.795Z,0.00
2018-02-14T16:32:09.748Z,0.00
2018-02-14T16:33:02.476Z,0.00
2018-02-14T16:34:13.048Z,0.00
2018-02-14T16:34:59.213Z,0.00
2018-02-14T16:36:14.989Z,0.00
2018-02-14T16:38:30.773Z,0.00